LFPO 181730Z AUTO 31011KT CAVOK 28/14 Q1013 NOSIG

ElémentsDécodage
LFPO Station météo située sur l'aérodrome de PARIS Orly
181730Z émis le 18 du mois à 17h30 UTC
AUTO Bulletin édité par un automate
31011KT vent du 310°, 11 noeuds
CAVOK Ceiling And Visibility OK
- Visibilité de 10 Km ou plus
- Pas de nuage au-dessous de 1500m ou au-dessous de l'altitude minimale du secteur la plus élevée (si>1500m) et absence de CB
- pas de temps présent significatif
28/14 température 28°C, point de rosée 14°C
 soit une humidité relative de 42%
Q1013 la pression au niveau de la mer (QNH) est de 1013 hPa
NOSIG Pas de changement significatif prévu au cours des deux heures suivant l'heure de l'observation